This is the latest recevied weather packets stored in our database for station/object Kirchdorf. If no packets are shown the sender has not sent any weather packets the latest 10 day(s).
| Time | Temp. | Humidity | Pressure | Rain* | Wind** | Luminosity | Snow |
|---|---|---|---|---|---|---|---|
| 1788305531 | 12.78° C | 94% | 1022 hPa | 0 mm | - | - | - |
| 1788303731 | 13.33° C | 94% | 1022.3 hPa | 0 mm | - | - | - |
| 1788301930 | 13.33° C | 92% | 1022.2 hPa | 0 mm | - | - | - |
| 1788300131 | 14.44° C | 92% | 1022.2 hPa | 0 mm | - | - | - |
| 1788298331 | 14.44° C | 91% | 1022.1 hPa | 0 mm | - | - | - |
| 1788296531 | 15° C | 88% | 1022 hPa | 0 mm | - | - | - |
| 1788294730 | 15.56° C | 88% | 1021.9 hPa | 0 mm | - | - | - |
| 1788292931 | 16.11° C | 86% | 1022 hPa | 0 mm | - | - | - |
| 1788291131 | 16.67° C | 82% | 1021.7 hPa | 0 mm | - | - | - |
| 1788289330 | 17.78° C | 77% | 1021.3 hPa | 0 mm | - | - | - |
| 1788287533 | 18.33° C | 79% | 1021.1 hPa | 0 mm | - | - | - |
| 1788285731 | 18.89° C | 70% | 1020.8 hPa | 0 mm | - | - | - |
| 1788283931 | 21.11° C | 63% | 1020.7 hPa | 0 mm | - | - | - |
| 1788282131 | 22.22° C | 57% | 1020.8 hPa | 0 mm | - | - | - |
| 1788280331 | 22.78° C | 55% | 1020.8 hPa | 0 mm | - | - | - |
| 1788278530 | 22.78° C | 56% | 1020.7 hPa | 0 mm | - | - | - |
| 1788276731 | 22.22° C | 56% | 1020.7 hPa | 0 mm | - | - | - |
| 1788274930 | 22.78° C | 56% | 1020.7 hPa | 0 mm | - | - | - |
| 1788273131 | 24.44° C | 53% | 1020.8 hPa | 0 mm | - | - | - |
| 1788271330 | 23.33° C | 54% | 1020.9 hPa | 0 mm | - | - | - |
| 1788269530 | 23.33° C | 54% | 1020.8 hPa | 0 mm | - | - | - |
| 1788267730 | 23.89° C | 53% | 1021.1 hPa | 0 mm | - | - | - |
| 1788265930 | 22.22° C | 62% | 1021.3 hPa | 0 mm | - | - | - |
| 1788264131 | 23.33° C | 54% | 1021.3 hPa | 0 mm | - | - | - |
| 1788262331 | 23.33° C | 57% | 1021.4 hPa | 0 mm | - | - | - |
* Rain since midnight (hover to see other rain measurements)
** Current wind speed in m/s (hover to see current wind gust speed)